Webster, Nebraska
Current Conditions -  °F | °C
As of 8:53 AM on Thursday 30 Oct 2014 (Local Time) from KODX Reporting Station
Clear Clear  
Wind Chill: 30°   Ceiling: Unl
Heat Index: 35°   Visibility: 10mi
Dew Point: 30°   Wind: 6mph
Humidity: 82%   Direction: 320°NW
Pressure: 30.14"   Gusts: NA
Location:  41.3026°N, 99.0141°W
Report Text: KODX 301353Z AUTO 32005KT 10SM CLR 02/M01 A3014 RMK AO2 SLP220 T00171011
Loading
Personal Weather Stations






























Interactive Weather Map
Tropical Storm Tracking
New forecast layout! Learn more

10-Day Weather Forecast

Advertisements
Track Severe Weather on mobile